sensor_id;sensor_type;location;lat;lon;timestamp;pressure;altitude;pressure_sealevel;temperature;humidity
37852;BME280;23691;52.486;4.650;2023-04-29T00:00:50;101590.84;;;10.81;78.79
37852;BME280;23691;52.486;4.650;2023-04-29T00:03:15;101595.50;;;10.79;78.73
37852;BME280;23691;52.486;4.650;2023-04-29T00:05:46;101602.00;;;10.77;78.91
37852;BME280;23691;52.486;4.650;2023-04-29T00:08:11;101612.72;;;10.77;78.92
37852;BME280;23691;52.486;4.650;2023-04-29T00:10:40;101606.34;;;10.78;78.79
37852;BME280;23691;52.486;4.650;2023-04-29T00:13:05;101613.53;;;10.77;78.62
37852;BME280;23691;52.486;4.650;2023-04-29T00:15:31;101607.22;;;10.78;78.41
37852;BME280;23691;52.486;4.650;2023-04-29T00:17:56;101608.50;;;10.74;78.51
37852;BME280;23691;52.486;4.650;2023-04-29T00:20:22;101607.78;;;10.72;78.28
37852;BME280;23691;52.486;4.650;2023-04-29T00:22:47;101611.31;;;10.72;78.48
37852;BME280;23691;52.486;4.650;2023-04-29T00:25:13;101624.16;;;10.69;78.38
37852;BME280;23691;52.486;4.650;2023-04-29T00:27:42;101615.41;;;10.67;78.21
37852;BME280;23691;52.486;4.650;2023-04-29T00:30:10;101616.97;;;10.69;78.25
37852;BME280;23691;52.486;4.650;2023-04-29T00:32:36;101631.75;;;10.73;78.11
37852;BME280;23691;52.486;4.650;2023-04-29T00:35:01;101626.97;;;10.67;78.08
37852;BME280;23691;52.486;4.650;2023-04-29T00:37:27;101629.81;;;10.66;78.07
37852;BME280;23691;52.486;4.650;2023-04-29T00:39:53;101631.47;;;10.67;78.06
37852;BME280;23691;52.486;4.650;2023-04-29T00:42:21;101633.03;;;10.69;77.82
37852;BME280;23691;52.486;4.650;2023-04-29T00:44:46;101637.09;;;10.73;77.65
37852;BME280;23691;52.486;4.650;2023-04-29T00:47:12;101639.47;;;10.77;77.40
37852;BME280;23691;52.486;4.650;2023-04-29T00:49:38;101642.47;;;10.73;77.58
37852;BME280;23691;52.486;4.650;2023-04-29T00:52:04;101645.41;;;10.70;77.47
37852;BME280;23691;52.486;4.650;2023-04-29T00:54:33;101648.06;;;10.70;77.26
37852;BME280;23691;52.486;4.650;2023-04-29T00:57:02;101650.22;;;10.67;77.43
37852;BME280;23691;52.486;4.650;2023-04-29T00:59:28;101651.88;;;10.68;77.14
37852;BME280;23691;52.486;4.650;2023-04-29T01:02:00;101653.91;;;10.66;77.05
37852;BME280;23691;52.486;4.650;2023-04-29T01:04:26;101653.19;;;10.64;76.98
37852;BME280;23691;52.486;4.650;2023-04-29T01:07:06;101658.38;;;10.65;76.71
37852;BME280;23691;52.486;4.650;2023-04-29T01:12:21;101660.63;;;10.70;76.49
37852;BME280;23691;52.486;4.650;2023-04-29T01:15:03;101672.47;;;10.67;76.31
37852;BME280;23691;52.486;4.650;2023-04-29T01:17:43;101676.13;;;10.66;76.17
37852;BME280;23691;52.486;4.650;2023-04-29T01:20:12;101681.78;;;10.63;75.94
37852;BME280;23691;52.486;4.650;2023-04-29T01:22:39;101674.72;;;10.62;75.97
37852;BME280;23691;52.486;4.650;2023-04-29T01:25:05;101674.03;;;10.60;75.85
37852;BME280;23691;52.486;4.650;2023-04-29T01:30:49;101674.72;;;10.62;75.61
37852;BME280;23691;52.486;4.650;2023-04-29T01:33:28;101676.69;;;10.60;75.36
37852;BME280;23691;52.486;4.650;2023-04-29T01:36:18;101676.44;;;10.63;75.22
37852;BME280;23691;52.486;4.650;2023-04-29T01:38:53;101681.63;;;10.65;74.98
37852;BME280;23691;52.486;4.650;2023-04-29T01:44:01;101682.03;;;10.70;74.91
37852;BME280;23691;52.486;4.650;2023-04-29T01:46:28;101682.88;;;10.70;74.86
37852;BME280;23691;52.486;4.650;2023-04-29T01:48:53;101687.53;;;10.68;74.84
37852;BME280;23691;52.486;4.650;2023-04-29T01:51:19;101686.84;;;10.66;74.71
37852;BME280;23691;52.486;4.650;2023-04-29T01:53:44;101687.81;;;10.65;74.99
37852;BME280;23691;52.486;4.650;2023-04-29T01:56:10;101689.53;;;10.66;74.82
37852;BME280;23691;52.486;4.650;2023-04-29T01:58:35;101685.84;;;10.67;74.82
37852;BME280;23691;52.486;4.650;2023-04-29T02:01:00;101686.69;;;10.68;75.05
37852;BME280;23691;52.486;4.650;2023-04-29T02:03:26;101692.91;;;10.68;74.84
37852;BME280;23691;52.486;4.650;2023-04-29T02:05:51;101696.53;;;10.67;74.98
37852;BME280;23691;52.486;4.650;2023-04-29T02:08:17;101686.53;;;10.69;74.91
37852;BME280;23691;52.486;4.650;2023-04-29T02:10:56;101696.25;;;10.70;74.95
37852;BME280;23691;52.486;4.650;2023-04-29T02:13:22;101698.66;;;10.73;74.91
37852;BME280;23691;52.486;4.650;2023-04-29T02:15:47;101709.19;;;10.75;74.78
37852;BME280;23691;52.486;4.650;2023-04-29T02:18:12;101701.03;;;10.77;74.79
37852;BME280;23691;52.486;4.650;2023-04-29T02:20:38;101708.06;;;10.78;74.70
37852;BME280;23691;52.486;4.650;2023-04-29T02:23:03;101716.25;;;10.76;74.72
37852;BME280;23691;52.486;4.650;2023-04-29T02:25:29;101710.91;;;10.76;74.65
37852;BME280;23691;52.486;4.650;2023-04-29T02:27:54;101716.09;;;10.78;74.99
37852;BME280;23691;52.486;4.650;2023-04-29T02:30:20;101716.97;;;10.78;74.81
37852;BME280;23691;52.486;4.650;2023-04-29T02:32:45;101722.88;;;10.82;74.89
37852;BME280;23691;52.486;4.650;2023-04-29T02:35:10;101722.56;;;10.85;74.98
37852;BME280;23691;52.486;4.650;2023-04-29T02:37:37;101727.78;;;10.86;74.88
37852;BME280;23691;52.486;4.650;2023-04-29T02:40:02;101727.50;;;10.89;74.95
37852;BME280;23691;52.486;4.650;2023-04-29T02:42:28;101726.94;;;10.86;75.36
37852;BME280;23691;52.486;4.650;2023-04-29T02:44:53;101730.91;;;10.82;75.60
37852;BME280;23691;52.486;4.650;2023-04-29T02:47:19;101725.53;;;10.82;75.86
37852;BME280;23691;52.486;4.650;2023-04-29T02:49:45;101734.41;;;10.82;76.11
37852;BME280;23691;52.486;4.650;2023-04-29T02:52:11;101738.78;;;10.83;76.17
37852;BME280;23691;52.486;4.650;2023-04-29T02:54:37;101734.97;;;10.86;76.60
37852;BME280;23691;52.486;4.650;2023-04-29T02:57:02;101741.16;;;10.86;76.49
37852;BME280;23691;52.486;4.650;2023-04-29T02:59:27;101745.69;;;10.86;76.56
37852;BME280;23691;52.486;4.650;2023-04-29T03:01:53;101741.31;;;10.85;76.81
37852;BME280;23691;52.486;4.650;2023-04-29T03:04:19;101745.69;;;10.86;76.67
37852;BME280;23691;52.486;4.650;2023-04-29T03:06:44;101747.38;;;10.87;76.86
37852;BME280;23691;52.486;4.650;2023-04-29T03:09:10;101751.75;;;10.88;76.84
37852;BME280;23691;52.486;4.650;2023-04-29T03:11:39;101748.38;;;10.86;77.07
37852;BME280;23691;52.486;4.650;2023-04-29T03:14:05;101753.72;;;10.86;77.01
37852;BME280;23691;52.486;4.650;2023-04-29T03:16:30;101751.88;;;10.86;77.01
37852;BME280;23691;52.486;4.650;2023-04-29T03:18:56;101760.88;;;10.85;77.20
37852;BME280;23691;52.486;4.650;2023-04-29T03:21:22;101759.22;;;10.84;77.46
37852;BME280;23691;52.486;4.650;2023-04-29T03:23:49;101757.53;;;10.83;77.31
37852;BME280;23691;52.486;4.650;2023-04-29T03:26:14;101763.84;;;10.82;77.49
37852;BME280;23691;52.486;4.650;2023-04-29T03:28:40;101770.22;;;10.81;77.23
37852;BME280;23691;52.486;4.650;2023-04-29T03:31:06;101767.81;;;10.78;77.53
37852;BME280;23691;52.486;4.650;2023-04-29T03:33:31;101770.94;;;10.73;77.36
37852;BME280;23691;52.486;4.650;2023-04-29T03:35:56;101765.00;;;10.70;77.59
37852;BME280;23691;52.486;4.650;2023-04-29T03:38:22;101777.00;;;10.66;77.61
37852;BME280;23691;52.486;4.650;2023-04-29T03:40:48;101783.31;;;10.65;77.58
37852;BME280;23691;52.486;4.650;2023-04-29T03:43:14;101789.66;;;10.64;77.72
37852;BME280;23691;52.486;4.650;2023-04-29T03:45:39;101783.19;;;10.66;77.63
37852;BME280;23691;52.486;4.650;2023-04-29T03:48:05;101786.69;;;10.67;77.82
37852;BME280;23691;52.486;4.650;2023-04-29T03:50:30;101791.06;;;10.68;77.56
37852;BME280;23691;52.486;4.650;2023-04-29T03:52:56;101796.56;;;10.66;77.81
37852;BME280;23691;52.486;4.650;2023-04-29T03:55:22;101796.88;;;10.63;77.91
37852;BME280;23691;52.486;4.650;2023-04-29T03:57:47;101795.28;;;10.61;78.07
37852;BME280;23691;52.486;4.650;2023-04-29T04:00:13;101797.28;;;10.59;77.99
37852;BME280;23691;52.486;4.650;2023-04-29T04:02:38;101802.47;;;10.60;78.00
37852;BME280;23691;52.486;4.650;2023-04-29T04:05:04;101803.47;;;10.59;78.00
37852;BME280;23691;52.486;4.650;2023-04-29T04:07:29;101806.16;;;10.59;77.93
37852;BME280;23691;52.486;4.650;2023-04-29T04:09:54;101812.22;;;10.61;77.81
37852;BME280;23691;52.486;4.650;2023-04-29T04:12:20;101814.72;;;10.63;77.96
37852;BME280;23691;52.486;4.650;2023-04-29T04:14:45;101821.06;;;10.62;77.86
37852;BME280;23691;52.486;4.650;2023-04-29T04:17:11;101813.34;;;10.59;77.83
37852;BME280;23691;52.486;4.650;2023-04-29T04:19:36;101816.69;;;10.61;78.03
37852;BME280;23691;52.486;4.650;2023-04-29T04:22:02;101814.72;;;10.63;77.94
37852;BME280;23691;52.486;4.650;2023-04-29T04:24:29;101819.94;;;10.64;77.79
37852;BME280;23691;52.486;4.650;2023-04-29T04:26:54;101827.13;;;10.64;77.94
37852;BME280;23691;52.486;4.650;2023-04-29T04:29:19;101833.34;;;10.64;77.89
37852;BME280;23691;52.486;4.650;2023-04-29T04:31:45;101827.84;;;10.66;77.79
37852;BME280;23691;52.486;4.650;2023-04-29T04:34:10;101835.59;;;10.69;77.64
37852;BME280;23691;52.486;4.650;2023-04-29T04:36:36;101834.59;;;10.70;77.58
37852;BME280;23691;52.486;4.650;2023-04-29T04:39:01;101833.63;;;10.71;77.52
37852;BME280;23691;52.486;4.650;2023-04-29T04:41:27;101838.97;;;10.71;77.87
37852;BME280;23691;52.486;4.650;2023-04-29T04:43:55;101839.81;;;10.71;77.75
37852;BME280;23691;52.486;4.650;2023-04-29T04:46:21;101850.50;;;10.71;77.83
37852;BME280;23691;52.486;4.650;2023-04-29T04:48:46;101839.81;;;10.71;77.93
37852;BME280;23691;52.486;4.650;2023-04-29T04:51:14;101851.22;;;10.73;77.87
37852;BME280;23691;52.486;4.650;2023-04-29T04:53:39;101848.69;;;10.72;77.89
37852;BME280;23691;52.486;4.650;2023-04-29T04:56:08;101856.00;;;10.70;77.78
37852;BME280;23691;52.486;4.650;2023-04-29T04:58:33;101864.19;;;10.68;77.82
37852;BME280;23691;52.486;4.650;2023-04-29T05:00:59;101862.19;;;10.70;77.54
37852;BME280;23691;52.486;4.650;2023-04-29T05:03:25;101866.56;;;10.71;77.75
37852;BME280;23691;52.486;4.650;2023-04-29T05:05:57;101869.38;;;10.80;77.63
37852;BME280;23691;52.486;4.650;2023-04-29T05:08:23;101872.91;;;10.80;77.57
37852;BME280;23691;52.486;4.650;2023-04-29T05:10:49;101872.66;;;10.83;77.66
37852;BME280;23691;52.486;4.650;2023-04-29T05:13:14;101878.69;;;10.85;77.75
37852;BME280;23691;52.486;4.650;2023-04-29T05:15:40;101874.44;;;10.83;77.53
37852;BME280;23691;52.486;4.650;2023-04-29T05:18:05;101879.53;;;10.86;77.50
37852;BME280;23691;52.486;4.650;2023-04-29T05:20:31;101885.31;;;10.81;77.14
37852;BME280;23691;52.486;4.650;2023-04-29T05:22:56;101878.53;;;10.77;77.71
37852;BME280;23691;52.486;4.650;2023-04-29T05:25:21;101888.28;;;10.78;77.87
37852;BME280;23691;52.486;4.650;2023-04-29T05:27:47;101883.59;;;10.80;77.35
37852;BME280;23691;52.486;4.650;2023-04-29T05:30:12;101889.53;;;10.84;77.25
37852;BME280;23691;52.486;4.650;2023-04-29T05:32:37;101898.13;;;10.87;77.37
37852;BME280;23691;52.486;4.650;2023-04-29T05:35:03;101897.00;;;10.90;77.27
37852;BME280;23691;52.486;4.650;2023-04-29T05:37:28;101894.91;;;10.93;77.09
37852;BME280;23691;52.486;4.650;2023-04-29T05:39:56;101899.97;;;10.96;77.22
37852;BME280;23691;52.486;4.650;2023-04-29T05:42:21;101905.31;;;11.06;77.06
37852;BME280;23691;52.486;4.650;2023-04-29T05:44:48;101904.91;;;11.11;76.60
37852;BME280;23691;52.486;4.650;2023-04-29T05:47:13;101904.19;;;11.09;76.74
37852;BME280;23691;52.486;4.650;2023-04-29T05:49:38;101910.38;;;11.09;76.69
37852;BME280;23691;52.486;4.650;2023-04-29T05:52:03;101917.59;;;11.09;76.36
37852;BME280;23691;52.486;4.650;2023-04-29T05:54:31;101914.91;;;11.09;76.42
37852;BME280;23691;52.486;4.650;2023-04-29T05:56:57;101914.47;;;11.13;76.48
37852;BME280;23691;52.486;4.650;2023-04-29T05:59:22;101933.22;;;11.13;76.21
37852;BME280;23691;52.486;4.650;2023-04-29T06:01:47;101931.09;;;11.17;75.85
37852;BME280;23691;52.486;4.650;2023-04-29T06:04:13;101934.50;;;11.19;75.83
37852;BME280;23691;52.486;4.650;2023-04-29T06:06:38;101939.56;;;11.22;75.41
37852;BME280;23691;52.486;4.650;2023-04-29T06:09:03;101940.84;;;11.28;75.24
37852;BME280;23691;52.486;4.650;2023-04-29T06:11:29;101938.88;;;11.30;74.95
37852;BME280;23691;52.486;4.650;2023-04-29T06:13:55;101950.56;;;11.29;74.73
37852;BME280;23691;52.486;4.650;2023-04-29T06:16:21;101949.44;;;11.31;74.56
37852;BME280;23691;52.486;4.650;2023-04-29T06:18:47;101935.59;;;11.36;74.23
37852;BME280;23691;52.486;4.650;2023-04-29T06:21:12;101941.38;;;11.41;73.73
37852;BME280;23691;52.486;4.650;2023-04-29T06:23:37;101950.00;;;11.45;73.47
37852;BME280;23691;52.486;4.650;2023-04-29T06:26:03;101953.50;;;11.55;73.09
37852;BME280;23691;52.486;4.650;2023-04-29T06:28:28;101956.28;;;11.63;72.68
37852;BME280;23691;52.486;4.650;2023-04-29T06:30:54;101965.59;;;11.69;72.60
37852;BME280;23691;52.486;4.650;2023-04-29T06:33:19;101968.97;;;11.71;72.11
37852;BME280;23691;52.486;4.650;2023-04-29T06:35:45;101974.19;;;11.72;71.49
37852;BME280;23691;52.486;4.650;2023-04-29T06:38:10;101977.84;;;11.71;70.92
37852;BME280;23691;52.486;4.650;2023-04-29T06:40:35;101983.78;;;11.75;70.87
37852;BME280;23691;52.486;4.650;2023-04-29T06:43:01;101986.03;;;11.79;70.61
37852;BME280;23691;52.486;4.650;2023-04-29T06:45:27;101981.22;;;11.83;70.14
37852;BME280;23691;52.486;4.650;2023-04-29T06:47:52;101992.25;;;11.90;69.75
37852;BME280;23691;52.486;4.650;2023-04-29T06:50:18;101994.19;;;11.97;69.47
37852;BME280;23691;52.486;4.650;2023-04-29T06:52:44;101989.94;;;12.05;69.17
37852;BME280;23691;52.486;4.650;2023-04-29T06:55:09;101994.88;;;12.09;68.67
37852;BME280;23691;52.486;4.650;2023-04-29T06:57:35;102003.72;;;12.19;68.53
37852;BME280;23691;52.486;4.650;2023-04-29T07:00:01;101999.47;;;12.27;68.02
37852;BME280;23691;52.486;4.650;2023-04-29T07:02:29;102005.38;;;12.30;67.70
37852;BME280;23691;52.486;4.650;2023-04-29T07:04:54;102012.84;;;12.36;67.46
37852;BME280;23691;52.486;4.650;2023-04-29T07:07:19;102016.06;;;12.40;66.76
37852;BME280;23691;52.486;4.650;2023-04-29T07:09:45;102014.66;;;12.45;66.45
37852;BME280;23691;52.486;4.650;2023-04-29T07:12:10;102020.13;;;12.54;66.04
37852;BME280;23691;52.486;4.650;2023-04-29T07:14:36;102030.81;;;12.63;65.80
37852;BME280;23691;52.486;4.650;2023-04-29T07:17:01;102025.38;;;12.73;65.60
37852;BME280;23691;52.486;4.650;2023-04-29T07:19:27;102035.13;;;12.74;65.19
37852;BME280;23691;52.486;4.650;2023-04-29T07:21:52;102038.66;;;12.75;64.78
37852;BME280;23691;52.486;4.650;2023-04-29T07:24:17;102033.41;;;12.83;64.46
37852;BME280;23691;52.486;4.650;2023-04-29T07:26:43;102039.00;;;12.89;64.18
37852;BME280;23691;52.486;4.650;2023-04-29T07:29:11;102044.59;;;12.96;64.13
37852;BME280;23691;52.486;4.650;2023-04-29T07:31:36;102044.16;;;13.01;63.69
37852;BME280;23691;52.486;4.650;2023-04-29T07:34:02;102042.69;;;13.06;63.23
37852;BME280;23691;52.486;4.650;2023-04-29T07:36:28;102043.97;;;13.12;63.01
37852;BME280;23691;52.486;4.650;2023-04-29T07:38:53;102046.72;;;13.20;62.35
37852;BME280;23691;52.486;4.650;2023-04-29T07:41:19;102046.09;;;13.26;62.21
37852;BME280;23691;52.486;4.650;2023-04-29T07:43:45;102049.75;;;13.35;61.96
37852;BME280;23691;52.486;4.650;2023-04-29T07:46:10;102048.66;;;13.46;61.71
37852;BME280;23691;52.486;4.650;2023-04-29T07:48:37;102052.44;;;13.53;61.29
37852;BME280;23691;52.486;4.650;2023-04-29T07:51:04;102051.81;;;13.59;61.14
37852;BME280;23691;52.486;4.650;2023-04-29T07:53:29;102059.44;;;13.64;60.85
37852;BME280;23691;52.486;4.650;2023-04-29T07:55:55;102060.97;;;13.66;60.38
37852;BME280;23691;52.486;4.650;2023-04-29T07:58:20;102059.72;;;13.79;60.44
37852;BME280;23691;52.486;4.650;2023-04-29T08:00:46;102063.63;;;13.84;60.03
37852;BME280;23691;52.486;4.650;2023-04-29T08:03:11;102072.22;;;13.88;59.61
37852;BME280;23691;52.486;4.650;2023-04-29T08:05:37;102063.69;;;13.92;59.60
37852;BME280;23691;52.486;4.650;2023-04-29T08:08:03;102060.84;;;13.94;59.42
37852;BME280;23691;52.486;4.650;2023-04-29T08:10:28;102061.53;;;13.96;59.53
37852;BME280;23691;52.486;4.650;2023-04-29T08:12:53;102066.34;;;14.10;59.40
37852;BME280;23691;52.486;4.650;2023-04-29T08:15:19;102070.47;;;14.23;59.21
37852;BME280;23691;52.486;4.650;2023-04-29T08:17:44;102069.00;;;14.36;59.15
37852;BME280;23691;52.486;4.650;2023-04-29T08:20:10;102072.75;;;14.44;58.93
37852;BME280;23691;52.486;4.650;2023-04-29T08:22:35;102075.72;;;14.58;58.64
37852;BME280;23691;52.486;4.650;2023-04-29T08:25:02;102073.06;;;14.67;58.76
37852;BME280;23691;52.486;4.650;2023-04-29T08:27:29;102067.53;;;14.76;58.62
37852;BME280;23691;52.486;4.650;2023-04-29T08:29:54;102076.31;;;14.78;58.85
37852;BME280;23691;52.486;4.650;2023-04-29T08:32:20;102081.25;;;14.91;58.54
37852;BME280;23691;52.486;4.650;2023-04-29T08:34:46;102074.41;;;15.05;58.07
37852;BME280;23691;52.486;4.650;2023-04-29T08:37:11;102075.97;;;15.32;58.01
37852;BME280;23691;52.486;4.650;2023-04-29T08:39:36;102084.25;;;15.47;57.43
37852;BME280;23691;52.486;4.650;2023-04-29T08:42:08;102091.91;;;15.76;56.68
37852;BME280;23691;52.486;4.650;2023-04-29T08:44:34;102089.38;;;15.83;56.50
37852;BME280;23691;52.486;4.650;2023-04-29T08:47:01;102083.63;;;15.70;56.81
37852;BME280;23691;52.486;4.650;2023-04-29T08:49:30;102090.16;;;15.42;57.11
37852;BME280;23691;52.486;4.650;2023-04-29T08:51:57;102093.81;;;15.25;57.16
37852;BME280;23691;52.486;4.650;2023-04-29T08:54:23;102103.28;;;15.29;56.81
37852;BME280;23691;52.486;4.650;2023-04-29T08:56:50;102103.91;;;15.23;56.76
37852;BME280;23691;52.486;4.650;2023-04-29T08:59:18;102108.97;;;15.18;56.91
37852;BME280;23691;52.486;4.650;2023-04-29T09:01:45;102110.94;;;14.99;57.16
37852;BME280;23691;52.486;4.650;2023-04-29T09:07:01;102113.16;;;15.12;56.88
37852;BME280;23691;52.486;4.650;2023-04-29T09:09:28;102109.78;;;15.10;56.80
37852;BME280;23691;52.486;4.650;2023-04-29T09:11:54;102108.34;;;15.32;56.20
37852;BME280;23691;52.486;4.650;2023-04-29T09:14:21;102104.63;;;15.33;56.53
37852;BME280;23691;52.486;4.650;2023-04-29T09:16:48;102107.66;;;15.30;55.90
37852;BME280;23691;52.486;4.650;2023-04-29T09:19:30;102110.19;;;15.40;55.88
37852;BME280;23691;52.486;4.650;2023-04-29T09:21:56;102113.06;;;15.38;55.94
37852;BME280;23691;52.486;4.650;2023-04-29T09:24:26;102111.31;;;15.21;56.01
37852;BME280;23691;52.486;4.650;2023-04-29T09:26:52;102118.06;;;15.17;55.76
37852;BME280;23691;52.486;4.650;2023-04-29T09:29:18;102111.19;;;15.31;55.89
37852;BME280;23691;52.486;4.650;2023-04-29T09:31:44;102108.19;;;15.42;55.93
37852;BME280;23691;52.486;4.650;2023-04-29T09:34:10;102109.00;;;15.26;56.13
37852;BME280;23691;52.486;4.650;2023-04-29T09:36:48;102113.91;;;15.47;55.78
37852;BME280;23691;52.486;4.650;2023-04-29T09:39:16;102112.09;;;15.56;55.78
37852;BME280;23691;52.486;4.650;2023-04-29T09:41:55;102117.22;;;15.75;55.85
37852;BME280;23691;52.486;4.650;2023-04-29T09:44:23;102114.84;;;15.88;55.23
37852;BME280;23691;52.486;4.650;2023-04-29T09:49:28;102119.75;;;15.93;54.72
37852;BME280;23691;52.486;4.650;2023-04-29T09:51:59;102117.22;;;16.00;54.59
37852;BME280;23691;52.486;4.650;2023-04-29T09:54:27;102121.09;;;16.05;54.49
37852;BME280;23691;52.486;4.650;2023-04-29T09:56:53;102118.22;;;15.99;54.34
37852;BME280;23691;52.486;4.650;2023-04-29T09:59:19;102127.50;;;16.13;53.83
37852;BME280;23691;52.486;4.650;2023-04-29T10:01:55;102121.09;;;16.05;54.04
37852;BME280;23691;52.486;4.650;2023-04-29T10:04:22;102122.94;;;15.88;54.20
37852;BME280;23691;52.486;4.650;2023-04-29T10:06:50;102126.66;;;15.87;54.29
37852;BME280;23691;52.486;4.650;2023-04-29T10:09:16;102126.97;;;16.09;53.93
37852;BME280;23691;52.486;4.650;2023-04-29T10:11:46;102126.28;;;16.07;53.04
37852;BME280;23691;52.486;4.650;2023-04-29T10:14:23;102122.59;;;16.08;53.10
37852;BME280;23691;52.486;4.650;2023-04-29T10:17:07;102125.47;;;16.15;52.93
37852;BME280;23691;52.486;4.650;2023-04-29T10:19:52;102119.69;;;16.26;52.81
37852;BME280;23691;52.486;4.650;2023-04-29T10:22:28;102125.75;;;16.36;52.49
37852;BME280;23691;52.486;4.650;2023-04-29T10:24:58;102122.06;;;16.29;52.23
37852;BME280;23691;52.486;4.650;2023-04-29T10:27:26;102125.78;;;16.28;52.17
37852;BME280;23691;52.486;4.650;2023-04-29T10:29:53;102124.72;;;16.45;52.36
37852;BME280;23691;52.486;4.650;2023-04-29T10:32:21;102118.81;;;16.50;51.83
37852;BME280;23691;52.486;4.650;2023-04-29T10:34:47;102126.88;;;16.66;51.74
37852;BME280;23691;52.486;4.650;2023-04-29T10:37:13;102112.84;;;16.71;51.55
37852;BME280;23691;52.486;4.650;2023-04-29T10:40:00;102116.66;;;17.01;51.27
37852;BME280;23691;52.486;4.650;2023-04-29T10:42:42;102119.09;;;16.80;51.16
37852;BME280;23691;52.486;4.650;2023-04-29T10:45:25;102120.78;;;16.72;51.29
37852;BME280;23691;52.486;4.650;2023-04-29T10:48:10;102121.56;;;16.98;50.75
37852;BME280;23691;52.486;4.650;2023-04-29T10:51:00;102125.69;;;16.69;50.84
37852;BME280;23691;52.486;4.650;2023-04-29T10:53:27;102121.84;;;16.55;50.68
37852;BME280;23691;52.486;4.650;2023-04-29T10:55:55;102130.97;;;16.54;50.71
37852;BME280;23691;52.486;4.650;2023-04-29T11:01:05;102134.66;;;16.61;50.40
37852;BME280;23691;52.486;4.650;2023-04-29T11:03:54;102140.75;;;16.55;50.44
37852;BME280;23691;52.486;4.650;2023-04-29T11:06:39;102127.00;;;16.73;50.22
37852;BME280;23691;52.486;4.650;2023-04-29T11:12:06;102135.47;;;16.86;49.96
37852;BME280;23691;52.486;4.650;2023-04-29T11:14:40;102133.25;;;16.90;49.73
37852;BME280;23691;52.486;4.650;2023-04-29T11:17:13;102129.53;;;16.91;50.05
37852;BME280;23691;52.486;4.650;2023-04-29T11:24:51;102139.25;;;17.08;50.11
37852;BME280;23691;52.486;4.650;2023-04-29T11:27:17;102141.97;;;17.00;49.78
37852;BME280;23691;52.486;4.650;2023-04-29T11:29:45;102136.41;;;17.02;50.04
37852;BME280;23691;52.486;4.650;2023-04-29T11:32:11;102152.78;;;17.00;49.95
37852;BME280;23691;52.486;4.650;2023-04-29T11:34:40;102151.28;;;16.98;49.86
37852;BME280;23691;52.486;4.650;2023-04-29T11:37:05;102156.38;;;16.92;49.46
37852;BME280;23691;52.486;4.650;2023-04-29T11:39:34;102157.53;;;16.98;49.37
37852;BME280;23691;52.486;4.650;2023-04-29T11:42:06;102154.50;;;17.01;49.54
37852;BME280;23691;52.486;4.650;2023-04-29T11:44:35;102156.53;;;16.99;49.25
37852;BME280;23691;52.486;4.650;2023-04-29T11:47:10;102163.28;;;17.03;49.14
37852;BME280;23691;52.486;4.650;2023-04-29T11:49:36;102169.13;;;17.15;48.76
37852;BME280;23691;52.486;4.650;2023-04-29T11:52:02;102171.41;;;17.34;48.59
37852;BME280;23691;52.486;4.650;2023-04-29T11:54:30;102179.72;;;17.33;48.20
37852;BME280;23691;52.486;4.650;2023-04-29T11:56:57;102175.53;;;17.22;47.98
37852;BME280;23691;52.486;4.650;2023-04-29T11:59:23;102173.31;;;17.26;47.80
37852;BME280;23691;52.486;4.650;2023-04-29T12:01:49;102173.59;;;17.39;47.83
37852;BME280;23691;52.486;4.650;2023-04-29T12:04:16;102172.44;;;17.65;47.52
37852;BME280;23691;52.486;4.650;2023-04-29T12:06:42;102174.78;;;17.68;47.05
37852;BME280;23691;52.486;4.650;2023-04-29T12:09:07;102173.38;;;17.80;47.26
37852;BME280;23691;52.486;4.650;2023-04-29T12:11:33;102180.22;;;17.91;46.93
37852;BME280;23691;52.486;4.650;2023-04-29T12:13:59;102176.31;;;17.93;46.90
37852;BME280;23691;52.486;4.650;2023-04-29T12:16:27;102172.22;;;17.97;46.83
37852;BME280;23691;52.486;4.650;2023-04-29T12:18:54;102174.69;;;18.07;46.66
37852;BME280;23691;52.486;4.650;2023-04-29T12:21:23;102173.03;;;18.21;46.57
37852;BME280;23691;52.486;4.650;2023-04-29T12:23:50;102168.78;;;18.27;46.58
37852;BME280;23691;52.486;4.650;2023-04-29T12:26:19;102164.03;;;18.29;46.68
37852;BME280;23691;52.486;4.650;2023-04-29T12:28:53;102164.03;;;18.43;46.82
37852;BME280;23691;52.486;4.650;2023-04-29T12:31:18;102166.66;;;18.52;46.56
37852;BME280;23691;52.486;4.650;2023-04-29T12:33:43;102163.47;;;18.48;46.60
37852;BME280;23691;52.486;4.650;2023-04-29T12:36:18;102165.44;;;18.39;46.62
37852;BME280;23691;52.486;4.650;2023-04-29T12:38:44;102165.13;;;18.34;46.29
37852;BME280;23691;52.486;4.650;2023-04-29T12:41:09;102164.03;;;18.43;46.47
37852;BME280;23691;52.486;4.650;2023-04-29T12:43:37;102169.56;;;18.65;46.32
37852;BME280;23691;52.486;4.650;2023-04-29T12:46:06;102167.94;;;18.79;45.95
37852;BME280;23691;52.486;4.650;2023-04-29T12:48:33;102174.66;;;18.83;46.06
37852;BME280;23691;52.486;4.650;2023-04-29T12:51:00;102171.56;;;19.01;46.00
37852;BME280;23691;52.486;4.650;2023-04-29T12:53:26;102161.63;;;19.23;45.65
37852;BME280;23691;52.486;4.650;2023-04-29T12:55:52;102163.09;;;19.40;45.57
37852;BME280;23691;52.486;4.650;2023-04-29T12:58:17;102168.22;;;19.50;44.91
37852;BME280;23691;52.486;4.650;2023-04-29T13:00:42;102168.31;;;19.42;44.71
37852;BME280;23691;52.486;4.650;2023-04-29T13:03:08;102166.25;;;19.44;44.93
37852;BME280;23691;52.486;4.650;2023-04-29T13:05:34;102166.34;;;19.50;44.69
37852;BME280;23691;52.486;4.650;2023-04-29T13:07:59;102159.50;;;19.55;44.51
37852;BME280;23691;52.486;4.650;2023-04-29T13:10:25;102167.22;;;19.72;44.46
37852;BME280;23691;52.486;4.650;2023-04-29T13:12:52;102171.34;;;19.68;44.00
37852;BME280;23691;52.486;4.650;2023-04-29T13:15:18;102178.19;;;19.64;43.88